sensor_id;sensor_type;location;lat;lon;timestamp;temperature;humidity
38936;DHT22;25541;47.458;9.644;2022-09-01T02:48:05;15.30;99.90
38936;DHT22;25541;47.458;9.644;2022-09-01T02:50:38;15.30;99.90
38936;DHT22;25541;47.458;9.644;2022-09-01T02:53:06;15.30;99.90
38936;DHT22;25541;47.458;9.644;2022-09-01T02:55:35;15.40;99.90
38936;DHT22;25541;47.458;9.644;2022-09-01T02:58:02;15.50;99.90
38936;DHT22;25541;47.458;9.644;2022-09-01T03:00:28;15.40;99.90
38936;DHT22;25541;47.458;9.644;2022-09-01T03:02:58;15.50;99.90
38936;DHT22;25541;47.458;9.644;2022-09-01T03:05:27;15.50;99.90
38936;DHT22;25541;47.458;9.644;2022-09-01T03:07:56;15.60;99.90
38936;DHT22;25541;47.458;9.644;2022-09-01T03:10:46;15.60;99.90
38936;DHT22;25541;47.458;9.644;2022-09-01T03:13:20;15.50;99.90
38936;DHT22;25541;47.458;9.644;2022-09-01T03:15:47;15.50;99.90
38936;DHT22;25541;47.458;9.644;2022-09-01T03:18:13;15.50;99.90
38936;DHT22;25541;47.458;9.644;2022-09-01T03:20:41;15.50;99.90
38936;DHT22;25541;47.458;9.644;2022-09-01T03:23:13;15.60;99.90
38936;DHT22;25541;47.458;9.644;2022-09-01T03:25:41;15.40;99.90
38936;DHT22;25541;47.458;9.644;2022-09-01T03:28:07;15.40;99.90
38936;DHT22;25541;47.458;9.644;2022-09-01T03:30:35;15.50;99.90
38936;DHT22;25541;47.458;9.644;2022-09-01T03:33:05;15.50;99.90
38936;DHT22;25541;47.458;9.644;2022-09-01T03:35:31;15.50;99.90
38936;DHT22;25541;47.458;9.644;2022-09-01T03:37:58;15.50;99.90
38936;DHT22;25541;47.458;9.644;2022-09-01T03:40:26;15.50;99.90
38936;DHT22;25541;47.458;9.644;2022-09-01T03:42:54;15.50;99.90
38936;DHT22;25541;47.458;9.644;2022-09-01T03:45:20;15.30;99.90
38936;DHT22;25541;47.458;9.644;2022-09-01T03:47:46;15.30;99.90
38936;DHT22;25541;47.458;9.644;2022-09-01T03:50:17;15.40;99.90
38936;DHT22;25541;47.458;9.644;2022-09-01T03:52:50;15.30;99.90
38936;DHT22;25541;47.458;9.644;2022-09-01T03:55:20;15.40;99.90
38936;DHT22;25541;47.458;9.644;2022-09-01T03:57:57;15.50;99.90
38936;DHT22;25541;47.458;9.644;2022-09-01T04:00:24;15.30;99.90
38936;DHT22;25541;47.458;9.644;2022-09-01T04:02:56;15.20;99.90
38936;DHT22;25541;47.458;9.644;2022-09-01T04:05:24;15.10;99.90
38936;DHT22;25541;47.458;9.644;2022-09-01T04:07:55;15.30;99.90
38936;DHT22;25541;47.458;9.644;2022-09-01T04:10:22;15.50;99.90
38936;DHT22;25541;47.458;9.644;2022-09-01T04:12:48;15.60;99.90
38936;DHT22;25541;47.458;9.644;2022-09-01T04:15:15;15.50;99.90
38936;DHT22;25541;47.458;9.644;2022-09-01T04:17:44;15.30;99.90
38936;DHT22;25541;47.458;9.644;2022-09-01T04:20:29;15.20;99.90
38936;DHT22;25541;47.458;9.644;2022-09-01T04:23:05;15.20;99.90
38936;DHT22;25541;47.458;9.644;2022-09-01T04:25:36;15.40;99.90
38936;DHT22;25541;47.458;9.644;2022-09-01T04:28:04;15.60;99.90
38936;DHT22;25541;47.458;9.644;2022-09-01T04:30:38;15.50;99.90
38936;DHT22;25541;47.458;9.644;2022-09-01T04:33:06;15.50;99.90
38936;DHT22;25541;47.458;9.644;2022-09-01T04:35:37;15.60;99.90
38936;DHT22;25541;47.458;9.644;2022-09-01T04:38:03;15.70;99.90
38936;DHT22;25541;47.458;9.644;2022-09-01T04:40:30;15.80;99.90
38936;DHT22;25541;47.458;9.644;2022-09-01T04:42:55;15.80;99.90
38936;DHT22;25541;47.458;9.644;2022-09-01T04:45:21;15.50;99.90
38936;DHT22;25541;47.458;9.644;2022-09-01T04:47:52;15.40;99.90
38936;DHT22;25541;47.458;9.644;2022-09-01T04:50:18;15.20;99.90
38936;DHT22;25541;47.458;9.644;2022-09-01T04:52:46;15.10;99.90
38936;DHT22;25541;47.458;9.644;2022-09-01T04:55:15;15.10;99.90
38936;DHT22;25541;47.458;9.644;2022-09-01T04:57:45;15.20;99.90
38936;DHT22;25541;47.458;9.644;2022-09-01T05:00:14;15.30;99.90
38936;DHT22;25541;47.458;9.644;2022-09-01T05:02:51;15.40;99.90
38936;DHT22;25541;47.458;9.644;2022-09-01T05:05:21;15.60;99.90
38936;DHT22;25541;47.458;9.644;2022-09-01T05:07:48;15.60;99.90
38936;DHT22;25541;47.458;9.644;2022-09-01T05:10:18;15.50;99.90
38936;DHT22;25541;47.458;9.644;2022-09-01T05:12:44;15.40;99.90
38936;DHT22;25541;47.458;9.644;2022-09-01T05:15:11;15.40;99.90
38936;DHT22;25541;47.458;9.644;2022-09-01T05:17:38;15.50;99.90
38936;DHT22;25541;47.458;9.644;2022-09-01T05:20:04;15.30;99.90
38936;DHT22;25541;47.458;9.644;2022-09-01T05:22:31;15.50;99.90
38936;DHT22;25541;47.458;9.644;2022-09-01T05:25:00;15.70;99.90
38936;DHT22;25541;47.458;9.644;2022-09-01T05:27:36;15.90;99.90
38936;DHT22;25541;47.458;9.644;2022-09-01T05:30:05;16.00;99.90
38936;DHT22;25541;47.458;9.644;2022-09-01T05:32:34;16.10;99.90
38936;DHT22;25541;47.458;9.644;2022-09-01T05:35:03;16.30;99.90
38936;DHT22;25541;47.458;9.644;2022-09-01T05:37:34;16.30;99.90
38936;DHT22;25541;47.458;9.644;2022-09-01T05:40:05;16.30;99.90
38936;DHT22;25541;47.458;9.644;2022-09-01T05:42:31;16.30;99.90
38936;DHT22;25541;47.458;9.644;2022-09-01T05:44:58;16.00;99.90
38936;DHT22;25541;47.458;9.644;2022-09-01T05:47:24;16.10;99.90
38936;DHT22;25541;47.458;9.644;2022-09-01T05:49:50;16.30;99.90
38936;DHT22;25541;47.458;9.644;2022-09-01T05:52:18;16.10;99.90
38936;DHT22;25541;47.458;9.644;2022-09-01T05:54:50;16.10;99.90
38936;DHT22;25541;47.458;9.644;2022-09-01T05:57:16;16.30;99.90
38936;DHT22;25541;47.458;9.644;2022-09-01T05:59:44;16.50;99.90
38936;DHT22;25541;47.458;9.644;2022-09-01T06:02:19;16.80;99.90
38936;DHT22;25541;47.458;9.644;2022-09-01T06:04:46;17.00;99.90
38936;DHT22;25541;47.458;9.644;2022-09-01T06:07:13;17.10;99.90
38936;DHT22;25541;47.458;9.644;2022-09-01T06:09:43;17.10;99.90
38936;DHT22;25541;47.458;9.644;2022-09-01T06:12:10;17.10;99.90
38936;DHT22;25541;47.458;9.644;2022-09-01T06:14:42;17.00;99.90
38936;DHT22;25541;47.458;9.644;2022-09-01T06:17:08;17.00;99.90
38936;DHT22;25541;47.458;9.644;2022-09-01T06:19:37;17.00;99.90
38936;DHT22;25541;47.458;9.644;2022-09-01T06:22:04;17.10;99.90
38936;DHT22;25541;47.458;9.644;2022-09-01T06:24:30;17.20;99.90
38936;DHT22;25541;47.458;9.644;2022-09-01T06:26:56;17.20;99.90
38936;DHT22;25541;47.458;9.644;2022-09-01T06:29:24;17.30;99.90
38936;DHT22;25541;47.458;9.644;2022-09-01T06:31:49;17.30;99.90
38936;DHT22;25541;47.458;9.644;2022-09-01T06:34:18;17.50;99.90
38936;DHT22;25541;47.458;9.644;2022-09-01T06:36:45;17.70;99.90
38936;DHT22;25541;47.458;9.644;2022-09-01T06:39:12;17.70;99.90
38936;DHT22;25541;47.458;9.644;2022-09-01T06:41:48;17.40;99.90
38936;DHT22;25541;47.458;9.644;2022-09-01T06:44:17;17.40;99.90
38936;DHT22;25541;47.458;9.644;2022-09-01T06:46:48;17.20;99.90
38936;DHT22;25541;47.458;9.644;2022-09-01T06:49:13;17.20;99.90
38936;DHT22;25541;47.458;9.644;2022-09-01T06:51:40;17.40;99.90
38936;DHT22;25541;47.458;9.644;2022-09-01T06:54:05;17.90;99.90
38936;DHT22;25541;47.458;9.644;2022-09-01T06:56:32;18.00;99.90
38936;DHT22;25541;47.458;9.644;2022-09-01T06:59:01;18.30;99.90
38936;DHT22;25541;47.458;9.644;2022-09-01T07:01:29;18.50;99.50
38936;DHT22;25541;47.458;9.644;2022-09-01T07:03:55;18.60;97.80
38936;DHT22;25541;47.458;9.644;2022-09-01T07:06:23;18.30;99.70
38936;DHT22;25541;47.458;9.644;2022-09-01T07:08:54;18.30;98.80
38936;DHT22;25541;47.458;9.644;2022-09-01T07:11:23;18.40;98.90
38936;DHT22;25541;47.458;9.644;2022-09-01T07:13:54;18.30;98.40
38936;DHT22;25541;47.458;9.644;2022-09-01T07:16:22;18.50;97.90
38936;DHT22;25541;47.458;9.644;2022-09-01T07:18:49;18.90;97.00
38936;DHT22;25541;47.458;9.644;2022-09-01T07:21:15;19.20;96.00
38936;DHT22;25541;47.458;9.644;2022-09-01T07:23:41;19.30;95.80
38936;DHT22;25541;47.458;9.644;2022-09-01T07:26:08;19.20;97.80
38936;DHT22;25541;47.458;9.644;2022-09-01T07:28:35;19.50;96.30
38936;DHT22;25541;47.458;9.644;2022-09-01T07:31:01;19.50;94.90
38936;DHT22;25541;47.458;9.644;2022-09-01T07:33:28;19.60;94.30
38936;DHT22;25541;47.458;9.644;2022-09-01T07:35:57;19.50;94.90
38936;DHT22;25541;47.458;9.644;2022-09-01T07:38:24;19.70;95.30
38936;DHT22;25541;47.458;9.644;2022-09-01T07:40:50;19.80;93.90
38936;DHT22;25541;47.458;9.644;2022-09-01T07:43:24;20.00;93.00
38936;DHT22;25541;47.458;9.644;2022-09-01T07:45:53;19.70;93.50
38936;DHT22;25541;47.458;9.644;2022-09-01T07:48:22;19.60;93.10
38936;DHT22;25541;47.458;9.644;2022-09-01T07:50:52;19.50;93.20
38936;DHT22;25541;47.458;9.644;2022-09-01T07:53:36;19.60;93.10
38936;DHT22;25541;47.458;9.644;2022-09-01T07:56:08;19.40;93.20
38936;DHT22;25541;47.458;9.644;2022-09-01T07:58:36;19.30;93.60
38936;DHT22;25541;47.458;9.644;2022-09-01T08:01:06;19.70;92.80
38936;DHT22;25541;47.458;9.644;2022-09-01T08:03:32;20.00;91.30
38936;DHT22;25541;47.458;9.644;2022-09-01T08:06:03;20.00;90.70
38936;DHT22;25541;47.458;9.644;2022-09-01T08:08:31;20.00;90.60
38936;DHT22;25541;47.458;9.644;2022-09-01T08:10:57;20.00;91.10
38936;DHT22;25541;47.458;9.644;2022-09-01T08:13:23;20.30;89.40
38936;DHT22;25541;47.458;9.644;2022-09-01T08:15:49;20.30;88.90
38936;DHT22;25541;47.458;9.644;2022-09-01T08:18:14;20.40;88.80
38936;DHT22;25541;47.458;9.644;2022-09-01T08:20:41;20.40;88.30
38936;DHT22;25541;47.458;9.644;2022-09-01T08:23:13;20.50;88.30
38936;DHT22;25541;47.458;9.644;2022-09-01T08:25:41;20.50;87.90
38936;DHT22;25541;47.458;9.644;2022-09-01T08:28:08;20.80;89.00
38936;DHT22;25541;47.458;9.644;2022-09-01T08:30:34;21.40;85.90
38936;DHT22;25541;47.458;9.644;2022-09-01T08:33:02;22.50;80.80
38936;DHT22;25541;47.458;9.644;2022-09-01T08:35:28;23.40;79.60
38936;DHT22;25541;47.458;9.644;2022-09-01T08:37:54;24.60;72.50
38936;DHT22;25541;47.458;9.644;2022-09-01T08:40:21;25.60;65.20
38936;DHT22;25541;47.458;9.644;2022-09-01T08:43:26;25.30;64.70
38936;DHT22;25541;47.458;9.644;2022-09-01T08:45:57;25.30;66.50
38936;DHT22;25541;47.458;9.644;2022-09-01T08:48:35;24.00;68.20
38936;DHT22;25541;47.458;9.644;2022-09-01T08:51:19;23.80;71.70
38936;DHT22;25541;47.458;9.644;2022-09-01T08:53:56;24.00;66.80
38936;DHT22;25541;47.458;9.644;2022-09-01T08:56:25;23.10;71.70
38936;DHT22;25541;47.458;9.644;2022-09-01T08:58:51;23.40;70.20
38936;DHT22;25541;47.458;9.644;2022-09-01T09:01:24;24.00;70.80
38936;DHT22;25541;47.458;9.644;2022-09-01T09:04:06;25.00;66.10
38936;DHT22;25541;47.458;9.644;2022-09-01T09:09:34;25.70;62.40
38936;DHT22;25541;47.458;9.644;2022-09-01T09:17:29;26.20;63.00
38936;DHT22;25541;47.458;9.644;2022-09-01T09:19:57;27.30;61.80
38936;DHT22;25541;47.458;9.644;2022-09-01T09:22:24;27.50;59.90
38936;DHT22;25541;47.458;9.644;2022-09-01T09:25:17;27.80;58.40
38936;DHT22;25541;47.458;9.644;2022-09-01T09:27:44;28.00;57.40
38936;DHT22;25541;47.458;9.644;2022-09-01T09:30:23;27.80;57.30
38936;DHT22;25541;47.458;9.644;2022-09-01T09:32:54;27.60;57.60
38936;DHT22;25541;47.458;9.644;2022-09-01T09:35:26;27.50;59.60
38936;DHT22;25541;47.458;9.644;2022-09-01T09:37:53;27.70;58.70
38936;DHT22;25541;47.458;9.644;2022-09-01T09:40:26;27.40;57.60
38936;DHT22;25541;47.458;9.644;2022-09-01T09:45:40;26.90;59.50
38936;DHT22;25541;47.458;9.644;2022-09-01T09:48:25;26.60;60.00
38936;DHT22;25541;47.458;9.644;2022-09-01T09:50:51;26.00;62.20
38936;DHT22;25541;47.458;9.644;2022-09-01T09:56:09;25.50;61.50
38936;DHT22;25541;47.458;9.644;2022-09-01T09:58:43;25.30;61.90
38936;DHT22;25541;47.458;9.644;2022-09-01T10:03:50;25.50;62.90
38936;DHT22;25541;47.458;9.644;2022-09-01T10:06:41;25.30;62.90
38936;DHT22;25541;47.458;9.644;2022-09-01T10:09:33;25.00;62.80
38936;DHT22;25541;47.458;9.644;2022-09-01T10:12:00;24.90;64.20
38936;DHT22;25541;47.458;9.644;2022-09-01T10:14:40;25.30;64.10
38936;DHT22;25541;47.458;9.644;2022-09-01T10:17:20;26.50;61.10
38936;DHT22;25541;47.458;9.644;2022-09-01T10:19:53;27.30;56.70
38936;DHT22;25541;47.458;9.644;2022-09-01T10:22:21;27.10;58.70
38936;DHT22;25541;47.458;9.644;2022-09-01T10:24:47;27.30;58.20
38936;DHT22;25541;47.458;9.644;2022-09-01T10:27:36;27.80;56.80
38936;DHT22;25541;47.458;9.644;2022-09-01T10:30:06;28.20;57.00
38936;DHT22;25541;47.458;9.644;2022-09-01T10:32:38;28.00;56.70
38936;DHT22;25541;47.458;9.644;2022-09-01T10:35:07;27.80;60.70
38936;DHT22;25541;47.458;9.644;2022-09-01T10:37:36;28.40;57.50
38936;DHT22;25541;47.458;9.644;2022-09-01T10:42:35;27.90;58.30
38936;DHT22;25541;47.458;9.644;2022-09-01T10:45:02;28.20;55.70
38936;DHT22;25541;47.458;9.644;2022-09-01T10:47:31;28.10;55.70
38936;DHT22;25541;47.458;9.644;2022-09-01T10:55:28;26.20;60.20
38936;DHT22;25541;47.458;9.644;2022-09-01T11:01:01;25.30;60.40
38936;DHT22;25541;47.458;9.644;2022-09-01T11:13:49;24.40;62.70
38936;DHT22;25541;47.458;9.644;2022-09-01T11:16:28;24.60;64.90
38936;DHT22;25541;47.458;9.644;2022-09-01T11:18:55;24.30;61.90
38936;DHT22;25541;47.458;9.644;2022-09-01T11:21:40;24.00;64.10
38936;DHT22;25541;47.458;9.644;2022-09-01T11:27:10;24.00;63.70
38936;DHT22;25541;47.458;9.644;2022-09-01T11:29:57;24.00;64.00
38936;DHT22;25541;47.458;9.644;2022-09-01T11:32:30;23.80;61.70
38936;DHT22;25541;47.458;9.644;2022-09-01T11:34:57;23.50;63.00
38936;DHT22;25541;47.458;9.644;2022-09-01T11:37:24;23.20;63.80
38936;DHT22;25541;47.458;9.644;2022-09-01T11:39:57;23.20;67.10
38936;DHT22;25541;47.458;9.644;2022-09-01T11:42:31;23.60;67.70
38936;DHT22;25541;47.458;9.644;2022-09-01T11:45:14;23.90;67.70
38936;DHT22;25541;47.458;9.644;2022-09-01T11:47:46;24.00;66.60
38936;DHT22;25541;47.458;9.644;2022-09-01T11:50:24;24.00;65.30
38936;DHT22;25541;47.458;9.644;2022-09-01T11:53:14;23.70;67.40
38936;DHT22;25541;47.458;9.644;2022-09-01T11:55:50;23.80;67.20
38936;DHT22;25541;47.458;9.644;2022-09-01T11:58:32;23.70;65.90
38936;DHT22;25541;47.458;9.644;2022-09-01T12:01:19;23.90;66.90
38936;DHT22;25541;47.458;9.644;2022-09-01T12:03:47;23.80;67.90
38936;DHT22;25541;47.458;9.644;2022-09-01T12:06:25;23.60;63.80
38936;DHT22;25541;47.458;9.644;2022-09-01T12:08:59;23.30;66.30
38936;DHT22;25541;47.458;9.644;2022-09-01T12:11:34;23.10;67.50
38936;DHT22;25541;47.458;9.644;2022-09-01T12:14:02;23.10;68.10
38936;DHT22;25541;47.458;9.644;2022-09-01T12:16:29;23.10;67.40
38936;DHT22;25541;47.458;9.644;2022-09-01T12:18:57;23.00;68.80
38936;DHT22;25541;47.458;9.644;2022-09-01T12:21:28;23.10;67.60
38936;DHT22;25541;47.458;9.644;2022-09-01T12:24:19;23.30;67.50
38936;DHT22;25541;47.458;9.644;2022-09-01T12:26:48;23.40;65.60
38936;DHT22;25541;47.458;9.644;2022-09-01T12:29:14;23.40;66.10
38936;DHT22;25541;47.458;9.644;2022-09-01T12:31:42;23.30;66.70
38936;DHT22;25541;47.458;9.644;2022-09-01T12:37:06;23.50;67.20
38936;DHT22;25541;47.458;9.644;2022-09-01T12:39:57;23.50;69.50
38936;DHT22;25541;47.458;9.644;2022-09-01T12:42:25;23.60;69.80
38936;DHT22;25541;47.458;9.644;2022-09-01T12:45:03;23.50;69.60
38936;DHT22;25541;47.458;9.644;2022-09-01T12:52:55;23.80;67.10
38936;DHT22;25541;47.458;9.644;2022-09-01T12:55:26;23.70;67.40
38936;DHT22;25541;47.458;9.644;2022-09-01T12:57:56;23.50;66.00
38936;DHT22;25541;47.458;9.644;2022-09-01T13:00:26;23.50;65.80
38936;DHT22;25541;47.458;9.644;2022-09-01T13:07:55;23.60;65.90
38936;DHT22;25541;47.458;9.644;2022-09-01T13:10:27;23.50;64.60
38936;DHT22;25541;47.458;9.644;2022-09-01T13:12:55;23.40;67.90
38936;DHT22;25541;47.458;9.644;2022-09-01T13:15:22;23.60;69.30
38936;DHT22;25541;47.458;9.644;2022-09-01T13:17:50;23.70;69.30
38936;DHT22;25541;47.458;9.644;2022-09-01T13:20:16;23.50;68.50
38936;DHT22;25541;47.458;9.644;2022-09-01T13:22:42;23.60;68.50
38936;DHT22;25541;47.458;9.644;2022-09-01T13:25:10;23.70;68.50
38936;DHT22;25541;47.458;9.644;2022-09-01T13:27:38;23.50;67.80
38936;DHT22;25541;47.458;9.644;2022-09-01T13:30:12;23.40;70.00
38936;DHT22;25541;47.458;9.644;2022-09-01T13:32:39;23.30;67.70
38936;DHT22;25541;47.458;9.644;2022-09-01T13:35:06;23.20;68.90
38936;DHT22;25541;47.458;9.644;2022-09-01T13:37:31;23.00;68.80
38936;DHT22;25541;47.458;9.644;2022-09-01T13:39:57;23.00;68.70
38936;DHT22;25541;47.458;9.644;2022-09-01T13:42:23;22.90;69.20
38936;DHT22;25541;47.458;9.644;2022-09-01T13:44:49;23.00;69.40
38936;DHT22;25541;47.458;9.644;2022-09-01T13:47:15;23.20;69.40
38936;DHT22;25541;47.458;9.644;2022-09-01T13:49:40;23.40;67.10
38936;DHT22;25541;47.458;9.644;2022-09-01T13:52:06;23.60;69.20
38936;DHT22;25541;47.458;9.644;2022-09-01T13:54:32;23.90;69.10
38936;DHT22;25541;47.458;9.644;2022-09-01T13:56:58;23.70;68.40
38936;DHT22;25541;47.458;9.644;2022-09-01T13:59:23;23.60;65.40
38936;DHT22;25541;47.458;9.644;2022-09-01T14:01:49;23.50;65.70
38936;DHT22;25541;47.458;9.644;2022-09-01T14:04:15;23.40;67.50
38936;DHT22;25541;47.458;9.644;2022-09-01T14:06:43;23.50;66.90
38936;DHT22;25541;47.458;9.644;2022-09-01T14:09:10;23.60;66.40
38936;DHT22;25541;47.458;9.644;2022-09-01T14:11:37;23.20;66.30
38936;DHT22;25541;47.458;9.644;2022-09-01T14:14:03;23.30;69.00
38936;DHT22;25541;47.458;9.644;2022-09-01T14:16:29;23.20;67.10
38936;DHT22;25541;47.458;9.644;2022-09-01T14:18:54;23.30;68.20
38936;DHT22;25541;47.458;9.644;2022-09-01T14:21:20;23.20;69.50
38936;DHT22;25541;47.458;9.644;2022-09-01T14:23:46;23.20;66.60
38936;DHT22;25541;47.458;9.644;2022-09-01T14:26:14;23.10;67.90
38936;DHT22;25541;47.458;9.644;2022-09-01T14:28:41;23.10;67.00
38936;DHT22;25541;47.458;9.644;2022-09-01T14:31:10;23.00;68.20
38936;DHT22;25541;47.458;9.644;2022-09-01T14:33:36;23.10;68.90
38936;DHT22;25541;47.458;9.644;2022-09-01T14:36:04;23.30;68.20
38936;DHT22;25541;47.458;9.644;2022-09-01T14:38:30;23.10;67.10
38936;DHT22;25541;47.458;9.644;2022-09-01T14:40:56;23.10;66.90
38936;DHT22;25541;47.458;9.644;2022-09-01T14:43:22;23.00;67.70
38936;DHT22;25541;47.458;9.644;2022-09-01T14:45:48;23.20;67.70
38936;DHT22;25541;47.458;9.644;2022-09-01T14:48:17;23.40;66.80
38936;DHT22;25541;47.458;9.644;2022-09-01T14:50:47;23.40;67.50
38936;DHT22;25541;47.458;9.644;2022-09-01T14:53:13;23.40;66.70
38936;DHT22;25541;47.458;9.644;2022-09-01T14:55:39;23.50;67.90
38936;DHT22;25541;47.458;9.644;2022-09-01T14:58:05;23.50;67.50
38936;DHT22;25541;47.458;9.644;2022-09-01T15:00:32;23.60;66.50
38936;DHT22;25541;47.458;9.644;2022-09-01T15:02:59;23.60;66.00
38936;DHT22;25541;47.458;9.644;2022-09-01T15:05:26;23.60;66.10
38936;DHT22;25541;47.458;9.644;2022-09-01T15:07:52;23.70;66.10
38936;DHT22;25541;47.458;9.644;2022-09-01T15:10:21;24.00;65.40
38936;DHT22;25541;47.458;9.644;2022-09-01T15:12:47;24.00;65.20
38936;DHT22;25541;47.458;9.644;2022-09-01T15:15:14;24.00;63.70
38936;DHT22;25541;47.458;9.644;2022-09-01T15:17:40;24.00;65.30
38936;DHT22;25541;47.458;9.644;2022-09-01T15:20:06;24.10;65.70
38936;DHT22;25541;47.458;9.644;2022-09-01T15:22:51;24.40;65.50
38936;DHT22;25541;47.458;9.644;2022-09-01T15:25:17;24.80;63.60
38936;DHT22;25541;47.458;9.644;2022-09-01T15:27:43;25.00;63.10
38936;DHT22;25541;47.458;9.644;2022-09-01T15:30:14;24.90;62.80
38936;DHT22;25541;47.458;9.644;2022-09-01T15:32:46;24.90;62.20
38936;DHT22;25541;47.458;9.644;2022-09-01T15:35:12;24.60;62.20
38936;DHT22;25541;47.458;9.644;2022-09-01T15:37:38;24.30;62.80
38936;DHT22;25541;47.458;9.644;2022-09-01T15:40:05;24.10;64.10
38936;DHT22;25541;47.458;9.644;2022-09-01T15:42:33;23.90;63.60
38936;DHT22;25541;47.458;9.644;2022-09-01T15:45:04;23.70;64.40
38936;DHT22;25541;47.458;9.644;2022-09-01T15:47:30;23.40;66.10
38936;DHT22;25541;47.458;9.644;2022-09-01T15:49:56;23.50;66.20
38936;DHT22;25541;47.458;9.644;2022-09-01T15:52:22;23.50;66.00
38936;DHT22;25541;47.458;9.644;2022-09-01T15:54:47;23.20;66.80
38936;DHT22;25541;47.458;9.644;2022-09-01T15:57:13;23.10;65.70
38936;DHT22;25541;47.458;9.644;2022-09-01T15:59:39;23.00;67.50
38936;DHT22;25541;47.458;9.644;2022-09-01T16:02:07;23.20;67.80
38936;DHT22;25541;47.458;9.644;2022-09-01T16:04:34;23.10;66.70
38936;DHT22;25541;47.458;9.644;2022-09-01T16:07:01;23.00;65.00
38936;DHT22;25541;47.458;9.644;2022-09-01T16:09:27;23.10;66.10
38936;DHT22;25541;47.458;9.644;2022-09-01T16:11:53;23.00;65.60
38936;DHT22;25541;47.458;9.644;2022-09-01T16:14:19;22.70;65.20
38936;DHT22;25541;47.458;9.644;2022-09-01T16:17:05;22.80;64.30
38936;DHT22;25541;47.458;9.644;2022-09-01T16:22:43;22.60;64.30
38936;DHT22;25541;47.458;9.644;2022-09-01T16:25:16;22.50;65.00
38936;DHT22;25541;47.458;9.644;2022-09-01T16:27:44;22.50;64.70
38936;DHT22;25541;47.458;9.644;2022-09-01T16:30:14;22.30;66.00
38936;DHT22;25541;47.458;9.644;2022-09-01T16:32:47;22.30;66.30
38936;DHT22;25541;47.458;9.644;2022-09-01T16:35:14;22.50;66.00
38936;DHT22;25541;47.458;9.644;2022-09-01T16:40:56;22.30;66.60
38936;DHT22;25541;47.458;9.644;2022-09-01T16:48:41;22.30;67.10
38936;DHT22;25541;47.458;9.644;2022-09-01T16:54:55;22.20;67.80
38936;DHT22;25541;47.458;9.644;2022-09-01T16:57:40;22.10;67.10
38936;DHT22;25541;47.458;9.644;2022-09-01T17:00:12;22.00;66.30
38936;DHT22;25541;47.458;9.644;2022-09-01T17:05:27;21.90;65.80
38936;DHT22;25541;47.458;9.644;2022-09-01T17:08:21;21.90;66.60
38936;DHT22;25541;47.458;9.644;2022-09-01T17:13:30;21.80;66.70
38936;DHT22;25541;47.458;9.644;2022-09-01T17:18:39;21.50;66.90
38936;DHT22;25541;47.458;9.644;2022-09-01T17:22:09;21.50;66.30
38936;DHT22;25541;47.458;9.644;2022-09-01T17:24:35;21.40;67.10
38936;DHT22;25541;47.458;9.644;2022-09-01T17:27:13;21.30;67.00
38936;DHT22;25541;47.458;9.644;2022-09-01T17:35:00;21.20;68.90
38936;DHT22;25541;47.458;9.644;2022-09-01T17:41:16;21.00;70.10
38936;DHT22;25541;47.458;9.644;2022-09-01T17:57:11;20.50;68.90
38936;DHT22;25541;47.458;9.644;2022-09-01T18:00:00;20.50;70.10
38936;DHT22;25541;47.458;9.644;2022-09-01T18:02:47;20.40;70.90
38936;DHT22;25541;47.458;9.644;2022-09-01T18:05:24;20.40;71.30
38936;DHT22;25541;47.458;9.644;2022-09-01T18:11:01;20.20;73.60
38936;DHT22;25541;47.458;9.644;2022-09-01T18:16:11;20.10;75.00
38936;DHT22;25541;47.458;9.644;2022-09-01T18:18:40;20.00;75.00
38936;DHT22;25541;47.458;9.644;2022-09-01T18:21:19;19.90;76.10
38936;DHT22;25541;47.458;9.644;2022-09-01T18:23:50;19.80;76.50
38936;DHT22;25541;47.458;9.644;2022-09-01T18:26:29;19.70;77.10
38936;DHT22;25541;47.458;9.644;2022-09-01T18:29:00;19.60;77.60
38936;DHT22;25541;47.458;9.644;2022-09-01T18:39:52;19.20;76.40
38936;DHT22;25541;47.458;9.644;2022-09-01T18:42:26;19.30;75.30
38936;DHT22;25541;47.458;9.644;2022-09-01T18:47:36;19.30;76.70
38936;DHT22;25541;47.458;9.644;2022-09-01T18:51:00;19.20;76.90
38936;DHT22;25541;47.458;9.644;2022-09-01T18:56:07;18.90;77.40
38936;DHT22;25541;47.458;9.644;2022-09-01T19:01:31;18.90;76.00
38936;DHT22;25541;47.458;9.644;2022-09-01T19:04:23;19.00;77.30
38936;DHT22;25541;47.458;9.644;2022-09-01T19:07:23;18.90;75.90
38936;DHT22;25541;47.458;9.644;2022-09-01T19:10:02;18.90;76.90
38936;DHT22;25541;47.458;9.644;2022-09-01T19:20:23;18.60;77.40
38936;DHT22;25541;47.458;9.644;2022-09-01T19:23:01;18.50;77.10
38936;DHT22;25541;47.458;9.644;2022-09-01T19:25:29;18.60;76.90
38936;DHT22;25541;47.458;9.644;2022-09-01T19:31:14;18.70;75.20
38936;DHT22;25541;47.458;9.644;2022-09-01T19:33:49;18.80;74.60
38936;DHT22;25541;47.458;9.644;2022-09-01T19:36:36;18.80;74.30
38936;DHT22;25541;47.458;9.644;2022-09-01T19:39:05;18.70;74.60
38936;DHT22;25541;47.458;9.644;2022-09-01T19:41:39;18.80;74.30
38936;DHT22;25541;47.458;9.644;2022-09-01T19:47:17;18.80;74.40
38936;DHT22;25541;47.458;9.644;2022-09-01T19:52:48;18.50;76.90
38936;DHT22;25541;47.458;9.644;2022-09-01T19:58:08;18.30;77.50
38936;DHT22;25541;47.458;9.644;2022-09-01T20:03:18;18.30;77.60
38936;DHT22;25541;47.458;9.644;2022-09-01T20:05:50;18.30;77.00
38936;DHT22;25541;47.458;9.644;2022-09-01T20:09:08;18.20;77.30
38936;DHT22;25541;47.458;9.644;2022-09-01T20:14:42;18.00;79.50
38936;DHT22;25541;47.458;9.644;2022-09-01T20:17:39;17.90;80.40
38936;DHT22;25541;47.458;9.644;2022-09-01T20:20:14;17.70;79.50
38936;DHT22;25541;47.458;9.644;2022-09-01T20:25:07;17.80;80.00
38936;DHT22;25541;47.458;9.644;2022-09-01T20:30:21;17.70;80.10
38936;DHT22;25541;47.458;9.644;2022-09-01T20:32:54;17.70;80.20
38936;DHT22;25541;47.458;9.644;2022-09-01T20:35:35;17.70;80.00
38936;DHT22;25541;47.458;9.644;2022-09-01T20:38:40;17.80;80.50
38936;DHT22;25541;47.458;9.644;2022-09-01T20:41:42;17.70;82.40
38936;DHT22;25541;47.458;9.644;2022-09-01T20:44:12;17.60;83.00
38936;DHT22;25541;47.458;9.644;2022-09-01T20:46:41;17.50;84.20
38936;DHT22;25541;47.458;9.644;2022-09-01T20:49:08;17.40;84.40
38936;DHT22;25541;47.458;9.644;2022-09-01T21:00:09;17.20;85.50
38936;DHT22;25541;47.458;9.644;2022-09-01T21:03:10;17.10;86.40
38936;DHT22;25541;47.458;9.644;2022-09-01T21:06:15;17.00;87.60
38936;DHT22;25541;47.458;9.644;2022-09-01T21:08:48;16.90;87.60
38936;DHT22;25541;47.458;9.644;2022-09-01T21:11:30;16.80;88.10
38936;DHT22;25541;47.458;9.644;2022-09-01T21:22:11;16.80;88.70
38936;DHT22;25541;47.458;9.644;2022-09-01T21:24:38;16.90;88.50
38936;DHT22;25541;47.458;9.644;2022-09-01T21:27:14;16.90;88.70
38936;DHT22;25541;47.458;9.644;2022-09-01T21:32:11;16.80;90.40
38936;DHT22;25541;47.458;9.644;2022-09-01T21:34:41;16.80;90.00